Camargo, Oklahoma
Current Conditions -  °F | °C
As of 9:55 PM on Tuesday 25 Nov 2014 (Local Time) from KWWR Reporting Station
Clear Clear  
Wind Chill: 36°   Ceiling: Unl
Heat Index: 43°   Visibility: 10mi
Dew Point: 21°   Wind: 13mph
Humidity: 42%   Direction: 180°S
Pressure: 29.97"   Gusts: NA
Location:  36.02°N, 99.29°W
Report Text: KWWR 260355Z AUTO 18011KT 10SM CLR 06/M06 A2997 RMK AO2
Loading
Personal Weather Stations






























Interactive Weather Map New forecast layout! Learn more

10-Day Weather Forecast

Advertisements
Track Severe Weather on mobile